Hearne, TX

8:53 PM CST on November 22, 2019 (GMT -0600)
Hearne

Weather History for KLHB - September, 2019

Change the Weather History Date:

Wednesday, September 25, 2019

  Actual Average (WUND) Record (WUND)
Temperature  
Mean Temperature 83 °F -  
Max Temperature 96 °F - - (-1)
Min Temperature 70 °F - - (-1)
Cooling Degree Days 18    
Growing Degree Days 33 (Base 50)    
Moisture  
Dew Point 69 °F    
Average Humidity 67    
Maximum Humidity 95    
Minimum Humidity 35    
Precipitation  
Precipitation 0.00 in - - ()
Sea Level Pressure  
Sea Level Pressure 29.89 in    
Wind  
Wind Speed 4 mph ()    
Max Wind Speed 10 mph    
Max Gust Speed 16 mph    
Visibility 10.0 miles    
Events      
Averages and records for this station are not official NWS values.
T = Trace of Precipitation, MM = Missing Value Source: Averaged Metar Reports

Daily Weather History Graph

Daily Weather History Graph

Search for Another Location

Airport or City:

Astronomy

Sep. 25, 2019 Rise Set
Actual Time 7:16 AM CDT 7:19 PM CDT
Civil Twilight 6:52 AM CDT 7:43 PM CDT
Nautical Twilight 6:24 AM CDT 8:11 PM CDT
Astronomical Twilight 5:55 AM CDT 8:39 PM CDT
Moon 3:32 AM CDT (9/25) 5:33 PM CDT (9/25)
Length of Visible Light 12h 51m
Length of Day
12h 03m
Waning Crescent, 14% of the Moon is Illuminated
Sep 25
Waning Crescent
Sep 28
New
Oct 5
First Quarter
Oct 13
Full
Oct 21
Last Quarter

Hourly Weather History & Observations

Time (CDT) Temp. Heat Index Dew Point Humidity Pressure Visibility Wind Dir Wind Speed Gust Speed Precip Events Conditions
12:15 AM 78.1 °F - 69.8 °F 76% 29.91 in 10.0 mi SE 4.6 mph - N/A   Clear
12:35 AM 77.4 °F - 69.8 °F 77% 29.91 in 10.0 mi SE 5.8 mph - N/A   Clear
12:55 AM 77.0 °F - 69.8 °F 78% 29.91 in 10.0 mi SE 4.6 mph - N/A   Clear
1:15 AM 76.3 °F - 69.8 °F 80% 29.91 in 10.0 mi SE 4.6 mph - N/A   Clear
1:35 AM 75.7 °F - 69.8 °F 82% 29.91 in 10.0 mi SE 4.6 mph - N/A   Clear
1:55 AM 75.6 °F - 69.8 °F 82% 29.91 in 10.0 mi ESE 3.5 mph - N/A   Clear
2:15 AM 75.2 °F - 69.6 °F 83% 29.91 in 10.0 mi East 3.5 mph - N/A   Clear
2:35 AM 75.2 °F - 69.8 °F 83% 29.91 in 10.0 mi ESE 3.5 mph - N/A   Clear
2:55 AM 74.8 °F - 69.8 °F 84% 29.90 in 10.0 mi SE 3.5 mph - N/A   Clear
3:15 AM 73.6 °F - 69.4 °F 87% 29.90 in 10.0 mi Calm Calm - N/A   Clear
3:35 AM 73.9 °F - 69.8 °F 87% 29.90 in 10.0 mi ESE 3.5 mph - N/A   Clear
3:55 AM 73.6 °F - 69.8 °F 88% 29.90 in 10.0 mi Calm Calm - N/A   Clear
4:15 AM 72.7 °F - 69.4 °F 90% 29.90 in 10.0 mi Calm Calm - N/A   Clear
4:35 AM 72.0 °F - 68.9 °F 90% 29.90 in 10.0 mi Calm Calm - N/A   Clear
4:55 AM 72.1 °F - 69.4 °F 91% 29.90 in 10.0 mi Calm Calm - N/A   Clear
5:15 AM 71.8 °F - 69.4 °F 92% 29.90 in 10.0 mi ESE 3.5 mph - N/A   Clear
5:35 AM 71.6 °F - 69.4 °F 93% 29.90 in 10.0 mi Calm Calm - N/A   Clear
5:55 AM 71.6 °F - 69.3 °F 92% 29.90 in 10.0 mi Calm Calm - N/A   Clear
6:15 AM 70.9 °F - 68.9 °F 93% 29.90 in 10.0 mi Calm Calm - N/A   Clear
6:35 AM 71.6 °F - 69.4 °F 93% 29.91 in 10.0 mi ESE 3.5 mph - N/A   Clear
6:55 AM 71.6 °F - 69.8 °F 94% 29.92 in 10.0 mi Calm Calm - N/A   Clear
7:15 AM 71.4 °F - 69.6 °F 94% 29.92 in 10.0 mi ESE 3.5 mph - N/A   Clear
7:35 AM 71.4 °F - 69.8 °F 95% 29.93 in 10.0 mi Calm Calm - N/A   Clear
7:55 AM 72.0 °F - 70.3 °F 95% 29.92 in 10.0 mi Calm Calm - N/A   Clear
8:15 AM 73.2 °F - 71.1 °F 93% 29.93 in 10.0 mi Calm Calm - N/A   Clear
8:35 AM 74.8 °F - 71.4 °F 89% 29.93 in 10.0 mi SE 4.6 mph - N/A   Clear
8:55 AM 76.6 °F - 71.4 °F 84% 29.94 in 10.0 mi SSE 5.8 mph - N/A   Clear
9:15 AM 78.4 °F - 71.8 °F 80% 29.94 in 10.0 mi SSE 8.1 mph - N/A   Clear
9:35 AM 80.2 °F 84.2 °F 72.1 °F 76% 29.95 in 10.0 mi SSE 6.9 mph - N/A   Clear
9:55 AM 81.7 °F 86.5 °F 72.1 °F 73% 29.94 in 10.0 mi SSE 9.2 mph - N/A   Clear
10:15 AM 83.8 °F 89.8 °F 72.9 °F 69% 29.94 in 10.0 mi SSE 8.1 mph - N/A   Scattered Clouds
10:35 AM 85.1 °F 91.8 °F 72.9 °F 67% 29.95 in 10.0 mi SSE 10.4 mph - N/A   Scattered Clouds
10:55 AM 85.8 °F 92.6 °F 72.7 °F 65% 29.95 in 10.0 mi SSW 8.1 mph 16.1 mph N/A   Scattered Clouds
11:15 AM 86.5 °F 92.9 °F 72.3 °F 62% 29.94 in 10.0 mi SSW 8.1 mph - N/A   Scattered Clouds
11:35 AM 87.3 °F 94.0 °F 72.1 °F 61% 29.94 in 10.0 mi SSE 9.2 mph - N/A   Scattered Clouds
11:55 AM 89.1 °F 95.0 °F 71.1 °F 55% 29.94 in 10.0 mi SE 8.1 mph - N/A   Scattered Clouds
12:15 PM 89.8 °F 96.5 °F 71.4 °F 55% 29.93 in 10.0 mi South 4.6 mph - N/A   Scattered Clouds
12:35 PM 90.7 °F 96.9 °F 70.7 °F 52% 29.92 in 10.0 mi ESE 8.1 mph - N/A   Scattered Clouds
12:55 PM 90.9 °F 96.7 °F 70.5 °F 51% 29.91 in 10.0 mi SSE 6.9 mph - N/A   Clear
1:15 PM 91.6 °F 96.7 °F 69.4 °F 48% 29.90 in 10.0 mi SE 8.1 mph - N/A   Clear
1:35 PM 92.7 °F 96.7 °F 68.0 °F 44% 29.89 in 10.0 mi ESE 8.1 mph - N/A   Clear
1:55 PM 93.2 °F 95.3 °F 65.1 °F 39% 29.88 in 10.0 mi SSE 5.8 mph - N/A   Clear
2:15 PM 94.5 °F 98.0 °F 66.6 °F 40% 29.87 in 10.0 mi SSE 6.9 mph - N/A   Clear
2:35 PM 93.9 °F 97.0 °F 66.4 °F 40% 29.86 in 10.0 mi South 4.6 mph - N/A   Clear
2:55 PM 94.8 °F 99.8 °F 68.2 °F 42% 29.85 in 10.0 mi ESE 9.2 mph - N/A   Clear
3:15 PM 95.2 °F 99.9 °F 67.8 °F 41% 29.85 in 10.0 mi SE 8.1 mph - N/A   Clear
3:55 PM 95.7 °F 99.2 °F 66.6 °F 38% 29.84 in 10.0 mi SSE 9.2 mph - N/A   Clear
4:15 PM 95.9 °F 98.5 °F 65.3 °F 36% 29.84 in 10.0 mi SE 4.6 mph - N/A   Clear
4:35 PM 96.4 °F 98.9 °F 64.8 °F 35% 29.83 in 10.0 mi SE 8.1 mph - N/A   Clear
4:55 PM 95.9 °F 98.0 °F 64.6 °F 35% 29.82 in 10.0 mi SSE 8.1 mph - N/A   Clear
5:15 PM 95.0 °F 97.9 °F 65.8 °F 38% 29.82 in 10.0 mi SE 5.8 mph - N/A   Clear
5:35 PM 95.0 °F 97.9 °F 66.0 °F 38% 29.83 in 10.0 mi East 5.8 mph - N/A   Clear
5:55 PM 94.6 °F 98.3 °F 66.9 °F 40% 29.83 in 10.0 mi SE 5.8 mph - N/A   Clear
6:15 PM 93.2 °F 97.7 °F 68.0 °F 44% 29.83 in 10.0 mi ESE 5.8 mph - N/A   Clear
6:35 PM 92.3 °F 96.1 °F 67.8 °F 44% 29.83 in 10.0 mi ESE 5.8 mph - N/A   Clear
6:55 PM 90.9 °F 94.8 °F 68.0 °F 47% 29.84 in 10.0 mi SE 6.9 mph - N/A   Clear
7:15 PM 89.2 °F 92.8 °F 68.0 °F 49% 29.84 in 10.0 mi SE 6.9 mph - N/A   Clear
7:35 PM 88.0 °F 91.8 °F 68.2 °F 52% 29.85 in 10.0 mi SE 5.8 mph - N/A   Clear
7:55 PM 87.3 °F 90.9 °F 68.2 °F 53% 29.85 in 10.0 mi SE 5.8 mph - N/A   Clear
8:15 PM 86.5 °F 90.0 °F 68.2 °F 54% 29.85 in 10.0 mi SE 5.8 mph - N/A   Clear
8:35 PM 86.0 °F 89.4 °F 68.4 °F 55% 29.86 in 10.0 mi SE 5.8 mph - N/A   Clear
8:55 PM 85.3 °F 88.5 °F 68.0 °F 56% 29.87 in 10.0 mi SE 5.8 mph - N/A   Clear
9:15 PM 84.4 °F 87.6 °F 68.0 °F 58% 29.88 in 10.0 mi SE 5.8 mph - N/A   Clear
9:35 PM 83.7 °F 86.7 °F 68.0 °F 59% 29.88 in 10.0 mi SE 5.8 mph - N/A   Clear
9:55 PM 82.9 °F 85.8 °F 67.8 °F 60% 29.89 in 10.0 mi SE 5.8 mph - N/A   Clear
10:15 PM 82.4 °F 85.4 °F 68.0 °F 62% 29.90 in 10.0 mi SE 9.2 mph - N/A   Clear
10:35 PM 81.7 °F 84.9 °F 68.9 °F 65% 29.90 in 10.0 mi SE 9.2 mph - N/A   Clear
10:55 PM 81.3 °F 84.8 °F 69.8 °F 68% 29.91 in 10.0 mi SE 9.2 mph - N/A   Clear
11:15 PM 80.6 °F 84.1 °F 70.3 °F 71% 29.91 in 10.0 mi SE 9.2 mph - N/A   Clear
11:35 PM 80.1 °F 83.6 °F 71.1 °F 74% 29.92 in 10.0 mi SE 8.1 mph - N/A   Clear
11:55 PM 79.7 °F - 71.6 °F 76% 29.92 in 10.0 mi SE 8.1 mph - N/A   Clear